Flight Track Log - Related Links

Times and Time Zones

All times are in EDT time to prevent confusion due to time zone crossing. See the FLG4099 flight status page for this flight to view local times or setup timezone preferences in your user account.

Time Position Orientation Groundspeed Altitude Reporting Facility
EDT Latitude Longitude Course Direction KTS MPH feet Rate Location/Type
Tue 06:14:00 AM 44.3964 -73.5617 253° West  Level FlightAware Approximate
Tue 06:14:50 AM 44.3872 -73.3231 259° West 269 310 9,000  Level Boston Center
Tue 06:15:00 AM 44.3673 -73.6970 253° West  Level FlightAware Approximate
Tue 06:15:51 AM 44.3694 -73.4478 259° West 291 335 10,900  Level Boston Center
Tue 06:16:00 AM 44.3474 -73.8355 259° West  Level FlightAware Approximate
Tue 06:16:50 AM 44.3514 -73.5811 259° West 335 386 12,300  Level Boston Center
Tue 06:17:00 AM 44.3260 -73.9735 256° West  Level FlightAware Approximate
Tue 06:17:50 AM 44.3292 -73.7228 258° West 367 422 13,800  Level Boston Center
Tue 06:18:00 AM 44.3008 -74.1103 256° West  Level FlightAware Approximate
Tue 06:18:50 AM 44.3089 -73.8531 258° West 380 437 15,000  Level Boston Center
Tue 06:19:00 AM 44.2755 -74.2469 256° West  Level FlightAware Approximate
Tue 06:19:50 AM 44.2861 -74.0003 258° West 386 444 16,500  Level Boston Center
Tue 06:20:00 AM 44.2500 -74.3834 259° West  Level FlightAware Approximate
Tue 06:20:50 AM 44.2608 -74.1619 258° West 396 456 17,800  Level Boston Center
Tue 06:21:51 AM 44.2397 -74.3178 259° West 401 461 18,500 843 Climbing Boston Center
Tue 06:22:51 AM 44.2142 -74.4736 257° West 411 473 19,500 1,008 Climbing Boston Center
Tue 06:23:50 AM 44.1883 -74.6347 257° West 418 481 20,500 1,008 Climbing Boston Center
Tue 06:24:50 AM 44.1644 -74.7931 258° West 418 481 21,500 800 Climbing Boston Center
Tue 06:25:50 AM 44.1381 -74.9511 257° West 423 487 22,100 550 Climbing Boston Center
Tue 06:26:50 AM 44.1136 -75.1122 258° West 428 493 22,600 496 Climbing Boston Center
Tue 06:27:51 AM 44.0867 -75.2814 258° West 439 505 23,100 750 Climbing Boston Center
Tue 06:28:50 AM 44.0644 -75.4133 257° West 439 505 24,100 807 Climbing Boston Center
Tue 06:29:50 AM 44.0322 -75.6053 257° West 439 505 24,700 550 Climbing Boston Center
Tue 06:30:50 AM 44.0067 -75.7714 258° West 439 505 25,200 500 Climbing Boston Center
Tue 06:31:50 AM 43.9789 -75.9372 257° West 444 511 25,700 500 Climbing Boston Center
Tue 06:32:50 AM 43.9528 -76.1031 258° West 444 511 26,200 500 Climbing Boston Center
Tue 06:33:50 AM 43.9494 -76.2703 268° West 444 511 26,700 496 Climbing Boston Center
Tue 06:34:51 AM 43.9400 -76.4253 265° West 444 511 27,200 496 Climbing Boston Center
Tue 06:35:51 AM 43.9297 -76.5978 265° West 444 511 27,700 545 Climbing Boston Center
Tue 06:36:19 AM 43.9167 -76.6667 255° West 440 506 28,000 545 Climbing Toronto Center
Tue 06:37:19 AM 43.9000 -76.8333 262° West 440 506 28,500 500 Climbing Toronto Center
Tue 06:38:19 AM 43.8833 -77.0000 262° West 450 518 29,000 500 Climbing Toronto Center
Tue 06:39:19 AM 43.8667 -77.1833 263° West 440 506 29,500 500 Climbing Toronto Center
Tue 06:40:19 AM 43.8500 -77.3500 262° West 440 506 30,000 250 Climbing Toronto Center
Tue 06:41:19 AM 43.8500 -77.5000 270° West 450 518 30,000  Level Toronto Center
Tue 06:42:19 AM 43.8333 -77.6833 263° West 450 518 30,000  Level Toronto Center
Tue 06:43:19 AM 43.8167 -77.8833 263° West 460 529 30,000  Level Toronto Center
Tue 06:44:19 AM 43.8000 -78.0333 261° West 460 529 30,000  Level Toronto Center
Tue 06:45:19 AM 43.7667 -78.2167 256° West 460 529 30,000  Level Toronto Center
Tue 06:46:19 AM 43.7500 -78.3833 262° West 460 529 30,000  Level Toronto Center
Tue 06:47:19 AM 43.7500 -78.5667 270° West 460 529 30,000  Level Toronto Center
Tue 06:48:19 AM 43.7333 -78.7500 263° West 460 529 30,000  Level Toronto Center
Tue 06:49:19 AM 43.7167 -78.9167 262° West 470 541 30,000  Level Toronto Center
Tue 06:50:19 AM 43.7000 -79.1000 263° West 470 541 30,000  Level Toronto Center
Tue 06:51:19 AM 43.6833 -79.2833 263° West 470 541 30,000  Level Toronto Center
Tue 06:52:19 AM 43.6667 -79.4500 262° West 460 529 30,000  Level Toronto Center
Tue 06:53:19 AM 43.6333 -79.6333 256° West 470 541 30,000  Level Toronto Center
Tue 06:54:19 AM 43.5333 -79.7500 220° Southwest 470 541 30,000  Level Toronto Center
Tue 06:55:19 AM 43.4500 -79.8833 229° Southwest 460 529 30,000  Level Toronto Center
Tue 06:56:19 AM 43.3500 -80.0000 220° Southwest 460 529 30,000 -100 Level Toronto Center
Tue 06:57:19 AM 43.2667 -80.1333 229° Southwest 460 529 29,800 -950 Descending Toronto Center
Tue 06:58:19 AM 43.1667 -80.2500 220° Southwest 470 541 28,100 -1,650 Descending Toronto Center
Tue 06:59:19 AM 43.0833 -80.3833 229° Southwest 460 529 26,500 -1,650 Descending Toronto Center
Tue 07:00:19 AM 42.9833 -80.5000 220° Southwest 460 529 24,800 -1,700 Descending Toronto Center
Tue 07:01:19 AM 42.9000 -80.6333 230° Southwest 460 529 23,100 -1,102 Descending Toronto Center
Tue 07:01:57 AM 42.8414 -80.7164 226° Southwest 462 532 23,000 -61 Descending Cleveland Center
Tue 07:02:57 AM 42.7581 -80.8208 223° Southwest 457 526 23,000  Level Cleveland Center
Tue 07:03:57 AM 42.6950 -80.9644 239° Southwest 455 524 23,000  Level Cleveland Center
Tue 07:04:57 AM 42.6778 -81.1367 262° West 454 522 23,000  Level Cleveland Center
Tue 07:05:57 AM 42.6581 -81.3117 261° West 469 540 23,000  Level Cleveland Center
Tue 07:06:57 AM 42.6381 -81.4836 261° West 466 536 23,000  Level Cleveland Center
Tue 07:07:57 AM 42.6178 -81.6525 261° West 461 531 23,000 -500 Level Cleveland Center
Tue 07:08:57 AM 42.5975 -81.8100 260° West 426 490 22,000 -1,550 Descending Cleveland Center
Tue 07:09:57 AM 42.5939 -81.9397 268° West 384 442 19,900 -2,050 Descending Cleveland Center
Tue 07:10:57 AM 42.6258 -82.0589 290° West 346 398 17,900 -1,900 Descending Cleveland Center
Tue 07:11:57 AM 42.6556 -82.1725 290° West 335 386 16,100 -1,486 Descending Cleveland Center
Tue 07:12:42 AM 42.6439 -82.2542 259° West 316 364 15,300 -1,100 Descending Cleveland Center
Tue 07:12:57 AM 42.6289 -82.2792 231° Southwest 308 354 15,000 -1,091 Descending Cleveland Center
Tue 07:13:37 AM 42.6008 -82.3489 241° Southwest 311 358 14,300 -1,100 Descending Cleveland Center
Tue 07:13:57 AM 42.5836 -82.3794 233° Southwest 297 342 13,900 -1,091 Descending Cleveland Center
Tue 07:14:32 AM 42.5578 -82.4350 238° Southwest 303 349 13,300 -1,100 Descending Cleveland Center
Tue 07:14:57 AM 42.5406 -82.4769 241° Southwest 297 342 12,800 -1,182 Descending Cleveland Center
Tue 07:15:38 AM 42.5100 -82.5464 239° Southwest 297 342 12,000 -800 Descending Cleveland Center
Tue 07:15:57 AM 42.4972 -82.5742 238° Southwest 303 349 12,000 -492 Level Cleveland Center
Tue 07:16:39 AM 42.4708 -82.6522 245° Southwest 312 359 11,500 -1,000 Descending Cleveland Center
Tue 07:16:57 AM 42.4600 -82.6772 240° Southwest 308 354 11,000 -1,574 Descending Cleveland Center
Tue 07:17:40 AM 42.4336 -82.7522 245° Southwest 306 352 9,900 -1,500 Descending Cleveland Center
Tue 07:17:57 AM 42.4247 -82.7800 247° West 308 354 9,500 -1,475 Descending Cleveland Center
Tue 07:18:41 AM 42.4086 -82.8553 254° West 294 338 8,400 -1,600 Descending Cleveland Center
Tue 07:18:57 AM 42.4081 -82.8836 268° West 296 341 7,900 -1,180 Descending Cleveland Center
Tue 07:19:42 AM 42.4064 -82.9622 268° West 275 316 7,200 -900 Descending Cleveland Center
Tue 07:19:57 AM 42.4039 -82.9875 262° West 283 326 7,000 -689 Descending Cleveland Center
Tue 07:20:43 AM 42.4022 -83.0547 268° West 218 251 6,500 -1,009 Descending Cleveland Center
Tue 07:21:44 AM 42.3900 -83.1386 259° West 217 250 5,200 -885 Descending Cleveland Center
Tue 07:22:45 AM 42.3614 -83.2078 241° Southwest 191 220 4,700 -885 Descending Cleveland Center
Tue 07:23:46 AM 42.3269 -83.2569 227° Southwest 173 199 3,400 -1,190 Descending Cleveland Center
Tue 07:24:46 AM 42.2867 -83.2833 206° Southwest 139 160 2,300 -1,100 Descending Cleveland Center

Login

Don't have an account? Register now (free) for customized features, flight alerts, and more!